createdAt,value
2022-10-26T00:05:24.838Z,960.55
2022-10-26T00:10:56.780Z,960.59
2022-10-26T00:16:28.516Z,960.63
2022-10-26T00:22:00.313Z,960.61
2022-10-26T00:27:32.126Z,960.53
2022-10-26T00:33:03.889Z,960.45
2022-10-26T00:38:35.481Z,960.39
2022-10-26T00:44:07.347Z,960.37
2022-10-26T00:49:38.989Z,960.31
2022-10-26T00:55:16.539Z,960.25
2022-10-26T01:00:48.275Z,960.23
2022-10-26T01:06:20.006Z,960.29
2022-10-26T01:11:51.923Z,960.35
2022-10-26T01:28:27.551Z,960.39
2022-10-26T01:33:59.694Z,960.41
2022-10-26T01:39:31.626Z,960.45
2022-10-26T01:45:03.711Z,960.47
2022-10-26T01:50:35.681Z,960.43
2022-10-26T01:56:10.163Z,960.37
2022-10-26T02:01:41.782Z,960.41
2022-10-26T02:23:49.625Z,960.45
2022-10-26T02:29:21.254Z,960.45
2022-10-26T02:34:53.274Z,960.43
2022-10-26T02:45:56.877Z,960.47
2022-10-26T02:51:28.437Z,960.45
2022-10-26T03:02:32.382Z,960.37
2022-10-26T03:13:36.241Z,960.18
2022-10-26T03:19:08.145Z,960.12
2022-10-26T03:24:40.214Z,960.08
2022-10-26T03:30:12.063Z,960.06
2022-10-26T03:35:45.677Z,960.04
2022-10-26T03:41:17.631Z,960.02
2022-10-26T03:46:49.565Z,960.04
2022-10-26T03:52:21.838Z,960.06
2022-10-26T03:57:53.897Z,960.10
2022-10-26T04:05:38.203Z,960.04
2022-10-26T04:11:10.126Z,960.10
2022-10-26T04:16:42.031Z,960.16
2022-10-26T04:19:06.220Z,960.29
2022-10-26T04:24:38.102Z,960.33
2022-10-26T04:30:09.929Z,960.41
2022-10-26T04:35:41.520Z,960.47
2022-10-26T04:41:13.281Z,960.51
2022-10-26T04:46:45.254Z,960.53
2022-10-26T04:52:17.158Z,960.61
2022-10-26T04:57:49.286Z,960.74
2022-10-26T05:03:21.092Z,960.96
2022-10-26T05:08:53.004Z,961.17
2022-10-26T05:14:24.550Z,961.37
2022-10-26T05:19:55.965Z,961.49
2022-10-26T05:25:27.926Z,961.53
2022-10-26T05:31:05.868Z,961.57
2022-10-26T05:36:37.718Z,961.69
2022-10-26T05:42:09.579Z,961.75
2022-10-26T05:47:41.569Z,961.84
2022-10-26T05:53:13.449Z,961.92
2022-10-26T05:58:45.319Z,961.98
2022-10-26T06:04:17.624Z,962.04
2022-10-26T06:09:49.326Z,962.06
2022-10-26T06:15:21.040Z,962.04
2022-10-26T06:20:52.753Z,962.08
2022-10-26T06:26:24.601Z,962.10
2022-10-26T06:32:02.698Z,962.08
2022-10-26T06:37:34.964Z,962.08
2022-10-26T06:43:07.035Z,962.10
2022-10-26T06:48:38.870Z,962.08
2022-10-26T06:54:16.297Z,962.08
2022-10-26T06:59:48.242Z,962.08
2022-10-26T07:05:20.189Z,962.08
2022-10-26T07:10:52.158Z,962.12
2022-10-26T07:16:23.824Z,962.12
2022-10-26T07:21:55.703Z,962.14
2022-10-26T07:27:27.521Z,962.14
2022-10-26T07:38:28.825Z,962.16
2022-10-26T07:44:00.905Z,962.16
2022-10-26T07:49:33.139Z,962.14
2022-10-26T07:55:04.858Z,962.12
2022-10-26T08:00:36.848Z,962.08
2022-10-26T08:06:08.545Z,962.04
2022-10-26T08:11:40.169Z,962.08
2022-10-26T08:17:12.085Z,962.12
2022-10-26T08:22:43.936Z,962.18
2022-10-26T08:28:16.022Z,962.18
2022-10-26T08:33:49.565Z,962.18
2022-10-26T08:39:21.880Z,962.16
2022-10-26T08:44:53.584Z,962.20
2022-10-26T08:50:25.440Z,962.27
2022-10-26T08:55:57.151Z,962.33
2022-10-26T09:01:29.272Z,962.35
2022-10-26T09:07:01.553Z,962.35
2022-10-26T09:12:33.356Z,962.37
2022-10-26T09:18:06.299Z,962.39
2022-10-26T09:34:38.007Z,962.43
2022-10-26T09:40:10.181Z,962.41
2022-10-26T09:45:42.368Z,962.47
2022-10-26T09:51:14.378Z,962.53
2022-10-26T09:56:46.380Z,962.61
2022-10-26T10:07:47.860Z,962.67
2022-10-26T10:13:19.615Z,962.67
2022-10-26T10:18:51.417Z,962.69
2022-10-26T10:24:25.887Z,962.73
2022-10-26T10:35:29.709Z,962.74
2022-10-26T10:46:33.798Z,962.80
2022-10-26T10:52:06.170Z,962.82
2022-10-26T10:57:38.078Z,962.86
2022-10-26T11:08:42.382Z,962.90
2022-10-26T11:14:14.621Z,962.92
2022-10-26T11:19:46.895Z,962.92
2022-10-26T11:25:18.881Z,962.94
2022-10-26T11:30:50.981Z,963.00
2022-10-26T11:36:23.046Z,963.00
2022-10-26T11:41:54.844Z,963.04
2022-10-26T11:47:26.537Z,963.10
2022-10-26T12:04:02.324Z,963.25
2022-10-26T12:15:06.410Z,963.35
2022-10-26T12:20:38.275Z,963.37
2022-10-26T12:26:10.324Z,963.43
2022-10-26T12:31:48.375Z,963.45
2022-10-26T12:42:54.228Z,963.53
2022-10-26T12:53:57.815Z,963.61
2022-10-26T13:10:33.219Z,963.74
2022-10-26T13:16:05.062Z,963.76
2022-10-26T13:21:36.956Z,963.78
2022-10-26T13:27:08.737Z,963.82
2022-10-26T13:32:40.414Z,963.80
2022-10-26T13:38:12.057Z,963.82
2022-10-26T13:43:43.920Z,963.82
2022-10-26T13:49:15.565Z,963.82
2022-10-26T13:54:47.463Z,963.86
2022-10-26T14:00:23.363Z,963.90
2022-10-26T14:11:26.993Z,963.96
2022-10-26T14:16:58.722Z,964.00
2022-10-26T14:22:30.837Z,964.02
2022-10-26T14:28:12.084Z,964.02
2022-10-26T14:33:44.397Z,964.02
2022-10-26T14:39:16.238Z,964.04
2022-10-26T14:44:48.149Z,964.08
2022-10-26T14:50:19.851Z,964.14
2022-10-26T14:55:51.636Z,964.14
2022-10-26T15:01:23.820Z,964.26
2022-10-26T15:06:55.801Z,964.26
2022-10-26T15:12:27.556Z,964.30
2022-10-26T15:18:00.043Z,964.35
2022-10-26T15:23:31.886Z,964.39
2022-10-26T15:29:03.773Z,964.45
2022-10-26T15:34:36.178Z,964.47
2022-10-26T15:40:08.213Z,964.55
2022-10-26T15:45:40.178Z,964.59
2022-10-26T15:51:12.025Z,964.67
2022-10-26T16:02:14.233Z,964.75
2022-10-26T16:07:45.923Z,964.77
2022-10-26T16:13:17.774Z,964.79
2022-10-26T16:18:51.106Z,964.83
2022-10-26T16:24:21.911Z,964.87
2022-10-26T16:29:53.795Z,964.94
2022-10-26T16:35:25.976Z,964.98
2022-10-26T16:40:58.006Z,965.02
2022-10-26T16:46:30.055Z,965.08
2022-10-26T16:52:02.044Z,965.16
2022-10-26T16:57:33.760Z,965.22
2022-10-26T17:03:05.806Z,965.30
2022-10-26T17:08:38.182Z,965.37
2022-10-26T17:14:10.438Z,965.41
2022-10-26T17:19:42.714Z,965.49
2022-10-26T17:25:15.388Z,965.53
2022-10-26T17:30:47.415Z,965.61
2022-10-26T17:33:00.200Z,965.69
2022-10-26T17:38:31.923Z,965.71
2022-10-26T17:44:03.907Z,965.77
2022-10-26T17:49:36.405Z,965.84
2022-10-26T17:55:07.807Z,965.90
2022-10-26T18:00:39.846Z,965.96
2022-10-26T18:06:11.606Z,966.02
2022-10-26T18:11:43.871Z,966.08
2022-10-26T18:17:16.134Z,966.14
2022-10-26T18:22:48.409Z,966.22
2022-10-26T18:28:20.159Z,966.31
2022-10-26T18:33:52.189Z,966.37
2022-10-26T18:39:24.383Z,966.41
2022-10-26T18:50:28.208Z,966.51
2022-10-26T18:56:00.183Z,966.51
2022-10-26T19:01:32.490Z,966.59
2022-10-26T19:07:04.548Z,966.63
2022-10-26T19:12:36.400Z,966.67
2022-10-26T19:18:08.080Z,966.73
2022-10-26T19:23:39.933Z,966.85
2022-10-26T19:29:11.689Z,966.90
2022-10-26T19:34:43.276Z,966.92
2022-10-26T19:40:15.245Z,966.94
2022-10-26T19:45:46.922Z,966.98
2022-10-26T19:51:18.776Z,967.06
2022-10-26T19:56:50.599Z,967.08
2022-10-26T20:02:22.629Z,967.14
2022-10-26T20:07:54.643Z,967.20
2022-10-26T20:13:26.420Z,967.24
2022-10-26T20:18:58.258Z,967.26
2022-10-26T20:24:29.973Z,967.28
2022-10-26T20:30:01.626Z,967.30
2022-10-26T20:35:33.390Z,967.28
2022-10-26T20:41:07.915Z,967.30
2022-10-26T20:46:37.746Z,967.28
2022-10-26T20:52:20.780Z,967.30
2022-10-26T20:57:41.023Z,967.32
2022-10-26T21:03:12.958Z,967.37
2022-10-26T21:08:44.619Z,967.37
2022-10-26T21:14:16.583Z,967.43
2022-10-26T21:19:48.421Z,967.45
2022-10-26T21:25:20.176Z,967.47
2022-10-26T21:33:13.078Z,967.53
2022-10-26T21:38:44.767Z,967.55
2022-10-26T21:44:25.982Z,967.57
2022-10-26T21:49:48.394Z,967.61
2022-10-26T21:55:20.194Z,967.65
2022-10-26T22:00:52.063Z,967.69
2022-10-26T22:06:23.947Z,967.69
2022-10-26T22:11:55.539Z,967.71
2022-10-26T22:17:27.080Z,967.73
2022-10-26T22:23:00.446Z,967.71
2022-10-26T22:28:33.112Z,967.73
2022-10-26T22:34:07.334Z,967.73
2022-10-26T22:39:35.770Z,967.69
2022-10-26T22:45:07.586Z,967.71
2022-10-26T22:50:39.569Z,967.73
2022-10-26T22:56:11.033Z,967.75
2022-10-26T23:01:42.755Z,967.75
2022-10-26T23:07:14.568Z,967.75
2022-10-26T23:15:07.280Z,967.73
2022-10-26T23:20:39.241Z,967.75
2022-10-26T23:26:10.839Z,967.75
2022-10-26T23:31:42.603Z,967.73
2022-10-26T23:37:14.757Z,967.75
2022-10-26T23:42:46.502Z,967.75
2022-10-26T23:48:18.221Z,967.77
2022-10-26T23:53:50.229Z,967.73
2022-10-26T23:59:22.046Z,967.75
